Time;durP1;ratioP1;P1;durP2;ratioP2;P2;SDS_P1;SDS_P2;PMS_P1;PMS_P2;Temp;Humidity;BMP_temperature;BMP_pressure;BME280_temperature;BME280_humidity;BME280_pressure;Samples;Min_cycle;Max_cycle;Signal;HPM_P1;HPM_P2
2022/10/27 00:00:46;;;;;;;11.98;6.10;;;;;;;12.94;100.00;100830.56;5091438;28;20030;-67
2022/10/27 00:03:13;;;;;;;11.23;6.10;;;;;;;12.95;100.00;100833.19;5091644;28;20051;-67
2022/10/27 00:05:39;;;;;;;11.43;5.40;;;;;;;12.94;100.00;100831.44;5091759;28;20031;-67
2022/10/27 00:08:04;;;;;;;9.70;4.85;;;;;;;12.92;100.00;100830.59;5091514;28;20115;-66
2022/10/27 00:10:30;;;;;;;8.15;5.18;;;;;;;12.85;100.00;100818.34;5091306;28;20020;-66
2022/10/27 00:12:55;;;;;;;9.52;5.60;;;;;;;12.83;100.00;100812.16;5091121;28;20061;-67
2022/10/27 00:15:21;;;;;;;12.00;5.85;;;;;;;12.83;100.00;100814.84;5091156;28;20040;-66
2022/10/27 00:17:46;;;;;;;9.65;6.13;;;;;;;12.86;100.00;100820.13;5091621;28;20056;-67
2022/10/27 00:20:12;;;;;;;8.48;5.47;;;;;;;12.88;100.00;100834.25;5090959;28;20024;-67
2022/10/27 00:22:38;;;;;;;8.45;5.25;;;;;;;12.87;100.00;100827.19;5091304;28;20123;-67
2022/10/27 00:25:04;;;;;;;11.60;6.13;;;;;;;12.93;100.00;100832.34;5091135;28;20030;-66
2022/10/27 00:27:29;;;;;;;8.68;4.95;;;;;;;12.94;100.00;100836.78;5091280;28;20100;-67
2022/10/27 00:29:55;;;;;;;9.45;5.95;;;;;;;12.98;100.00;100837.56;5091209;28;20032;-67
2022/10/27 00:32:21;;;;;;;9.85;5.18;;;;;;;13.07;100.00;100840.00;5091069;28;20036;-66
2022/10/27 00:34:46;;;;;;;16.38;7.07;;;;;;;13.17;100.00;100845.03;5090927;28;20107;-66
2022/10/27 00:37:12;;;;;;;13.02;6.07;;;;;;;13.28;100.00;100846.50;5091202;28;20475;-67
2022/10/27 00:39:37;;;;;;;11.77;5.88;;;;;;;13.36;100.00;100847.13;5091161;28;20028;-66
2022/10/27 00:42:03;;;;;;;19.05;6.47;;;;;;;13.41;100.00;100854.06;5091069;28;20031;-68
2022/10/27 00:44:30;;;;;;;14.50;6.18;;;;;;;13.41;100.00;100843.38;5091055;28;20433;-65
2022/10/27 00:46:58;;;;;;;16.88;6.35;;;;;;;13.41;100.00;100854.06;5091127;28;20024;-67
2022/10/27 00:49:28;;;;;;;12.55;5.57;;;;;;;13.37;100.00;100851.56;5090935;28;20462;-67
2022/10/27 00:52:07;;;;;;;19.83;5.63;;;;;;;13.31;100.00;100849.94;5090907;28;20024;-67
2022/10/27 00:54:38;;;;;;;12.25;5.10;;;;;;;13.26;100.00;100851.00;5089169;28;20137;-67
2022/10/27 00:57:06;;;;;;;22.88;6.05;;;;;;;13.29;100.00;100854.47;5089189;28;20112;-66
2022/10/27 00:59:32;;;;;;;12.60;5.22;;;;;;;13.35;100.00;100848.03;5089898;28;20040;-67
2022/10/27 01:01:57;;;;;;;10.52;5.13;;;;;;;13.35;100.00;100848.03;5095200;28;20064;-69
2022/10/27 01:04:34;;;;;;;9.27;5.07;;;;;;;13.29;100.00;100837.56;5088975;28;20030;-68
2022/10/27 01:07:00;;;;;;;12.93;5.45;;;;;;;13.26;100.00;100849.22;5094643;28;20131;-67
2022/10/27 01:09:26;;;;;;;9.77;4.82;;;;;;;13.21;100.00;100846.66;5094864;28;20110;-67
2022/10/27 01:11:52;;;;;;;8.68;5.75;;;;;;;13.15;100.00;100846.84;5094746;28;20115;-68
2022/10/27 01:14:17;;;;;;;8.55;4.75;;;;;;;13.06;100.00;100841.78;5094918;28;20119;-66
2022/10/27 01:16:57;;;;;;;11.48;5.00;;;;;;;13.01;100.00;100838.38;5094594;28;20391;-67
2022/10/27 01:19:41;;;;;;;8.82;5.28;;;;;;;13.05;100.00;100836.47;5092723;28;20485;-67
2022/10/27 01:22:48;;;;;;;9.63;5.30;;;;;;;13.09;100.00;100836.38;5094599;28;20028;-67
2022/10/27 01:25:42;;;;;;;13.50;5.30;;;;;;;13.11;100.00;100828.31;5055307;28;20036;-66
2022/10/27 01:28:35;;;;;;;17.60;5.63;;;;;;;13.12;100.00;100836.28;5092303;28;20040;-67
2022/10/27 01:31:09;;;;;;;16.77;6.15;;;;;;;13.16;100.00;100829.91;5094400;28;20051;-67
2022/10/27 01:33:47;;;;;;;9.80;5.45;;;;;;;13.23;100.00;100816.38;5094541;28;20028;-66
2022/10/27 01:36:50;;;;;;;13.07;5.90;;;;;;;13.25;100.00;100815.38;5094649;28;20031;-68
2022/10/27 01:39:18;;;;;;;13.77;6.32;;;;;;;13.24;100.00;100814.50;5072223;28;20044;-67
2022/10/27 01:41:49;;;;;;;11.35;6.00;;;;;;;13.19;100.00;100818.25;5093949;28;20016;-67
2022/10/27 01:44:32;;;;;;;10.55;6.22;;;;;;;13.14;100.00;100823.75;5094276;28;20073;-66
2022/10/27 01:46:58;;;;;;;10.50;5.80;;;;;;;13.07;100.00;100815.94;5094171;28;20028;-67
2022/10/27 01:49:24;;;;;;;9.52;5.65;;;;;;;13.01;100.00;100822.34;5093455;28;20024;-67
2022/10/27 01:51:49;;;;;;;8.70;4.88;;;;;;;12.92;100.00;100825.25;5094273;28;20028;-66
2022/10/27 01:54:18;;;;;;;11.63;5.05;;;;;;;12.81;100.00;100823.81;5094216;28;20028;-67
2022/10/27 01:56:52;;;;;;;9.70;5.00;;;;;;;12.74;100.00;100831.13;5093711;28;20081;-67
2022/10/27 01:59:36;;;;;;;11.35;6.25;;;;;;;12.71;100.00;100835.69;5093802;28;20436;-67
2022/10/27 02:02:19;;;;;;;14.00;5.15;;;;;;;12.70;100.00;100837.47;5093352;28;20020;-66
2022/10/27 02:05:11;;;;;;;11.65;5.82;;;;;;;12.67;100.00;100837.56;5093888;28;20761;-66
2022/10/27 02:08:04;;;;;;;10.23;4.93;;;;;;;12.65;100.00;100828.72;5093663;28;20034;-66
2022/10/27 02:10:39;;;;;;;13.82;5.50;;;;;;;12.65;100.00;100823.38;5093473;28;20023;-66
2022/10/27 02:13:05;;;;;;;12.38;5.30;;;;;;;12.65;100.00;100811.84;5093017;28;20054;-66
2022/10/27 02:15:52;;;;;;;11.85;5.72;;;;;;;12.60;100.00;100817.28;5093543;28;20058;-66
2022/10/27 02:18:26;;;;;;;11.15;5.80;;;;;;;12.62;100.00;100806.59;5092909;28;20558;-67
2022/10/27 02:20:58;;;;;;;10.02;5.72;;;;;;;12.62;100.00;100820.78;5093469;28;20119;-67
2022/10/27 02:23:24;;;;;;;10.25;5.72;;;;;;;12.54;100.00;100804.13;5093162;28;20383;-67
2022/10/27 02:25:56;;;;;;;10.93;5.80;;;;;;;12.64;100.00;100816.28;5093497;28;20073;-66
2022/10/27 02:28:29;;;;;;;10.87;4.90;;;;;;;12.49;100.00;100810.50;5093251;28;20035;-67
2022/10/27 02:30:58;;;;;;;16.90;5.43;;;;;;;12.50;100.00;100825.59;5093434;28;20055;-67
2022/10/27 02:33:24;;;;;;;11.40;5.25;;;;;;;12.45;100.00;100832.84;5093315;28;20085;-67
2022/10/27 02:35:51;;;;;;;11.70;6.00;;;;;;;12.49;100.00;100838.06;5093262;28;20498;-66
2022/10/27 02:38:16;;;;;;;12.07;6.45;;;;;;;12.54;100.00;100840.59;5092989;28;20023;-66
2022/10/27 02:40:42;;;;;;;15.57;6.13;;;;;;;12.55;100.00;100847.72;5093127;28;20653;-67
2022/10/27 02:43:07;;;;;;;18.73;6.40;;;;;;;12.62;100.00;100852.81;5093004;28;20483;-66
2022/10/27 02:45:33;;;;;;;13.23;6.38;;;;;;;12.65;100.00;100850.06;5092998;28;20470;-66
2022/10/27 02:47:58;;;;;;;14.27;5.68;;;;;;;12.69;100.00;100845.50;5092836;28;20039;-66
2022/10/27 02:50:24;;;;;;;52.17;7.70;;;;;;;12.68;100.00;100846.44;5092120;28;20024;-66
2022/10/27 02:52:49;;;;;;;17.58;5.93;;;;;;;12.63;100.00;100846.59;5092143;28;20024;-67
2022/10/27 02:55:14;;;;;;;18.90;6.60;;;;;;;12.67;100.00;100836.66;5092069;28;20032;-66
2022/10/27 02:57:40;;;;;;;15.77;6.03;;;;;;;12.69;100.00;100834.84;5091756;28;20056;-66
2022/10/27 03:00:06;;;;;;;15.50;5.40;;;;;;;12.69;100.00;100835.72;5092069;28;20035;-66
2022/10/27 03:02:32;;;;;;;15.32;6.43;;;;;;;12.69;100.00;100822.38;5091605;28;20028;-66
2022/10/27 03:04:57;;;;;;;13.05;5.53;;;;;;;12.72;100.00;100837.41;5092312;28;20046;-67
2022/10/27 03:07:23;;;;;;;36.40;6.05;;;;;;;12.72;100.00;100835.63;5092091;28;20044;-67
2022/10/27 03:09:48;;;;;;;10.63;5.32;;;;;;;12.73;100.00;100840.06;5092928;28;20022;-67
2022/10/27 03:12:14;;;;;;;11.25;4.82;;;;;;;12.69;100.00;100829.50;5092598;28;20028;-66
2022/10/27 03:14:39;;;;;;;13.35;4.93;;;;;;;12.67;100.00;100834.88;5092461;28;20020;-67
2022/10/27 03:17:05;;;;;;;10.90;5.13;;;;;;;12.63;100.00;100835.03;5092259;28;20118;-66
2022/10/27 03:19:30;;;;;;;12.95;5.15;;;;;;;12.60;100.00;100846.63;5092230;28;20039;-66
2022/10/27 03:21:55;;;;;;;9.60;4.25;;;;;;;12.57;100.00;100846.72;5092226;28;20020;-65
2022/10/27 03:24:21;;;;;;;8.98;4.35;;;;;;;12.58;100.00;100844.94;5073752;28;20027;-66
2022/10/27 03:26:46;;;;;;;9.27;4.63;;;;;;;12.59;100.00;100838.69;5092291;28;20028;-67
2022/10/27 03:29:12;;;;;;;9.15;4.93;;;;;;;12.59;100.00;100855.56;5091746;28;20119;-67
2022/10/27 03:31:37;;;;;;;13.30;5.35;;;;;;;12.61;100.00;100847.53;5092149;28;20027;-67
2022/10/27 03:34:02;;;;;;;8.20;4.65;;;;;;;12.61;100.00;100848.41;5091893;28;20020;-67
2022/10/27 03:36:28;;;;;;;9.52;4.78;;;;;;;12.64;100.00;100848.31;5092107;28;20020;-67
2022/10/27 03:38:53;;;;;;;9.98;5.60;;;;;;;12.69;100.00;100853.53;5091667;28;20779;-67
2022/10/27 03:41:20;;;;;;;12.38;4.90;;;;;;;12.71;100.00;100844.56;5091775;28;20026;-67
2022/10/27 03:43:45;;;;;;;13.68;4.57;;;;;;;12.70;100.00;100850.81;5091960;28;20401;-67
2022/10/27 03:46:11;;;;;;;24.05;4.78;;;;;;;12.70;100.00;100837.47;5092063;28;20028;-66
2022/10/27 03:48:37;;;;;;;10.77;4.57;;;;;;;12.75;100.00;100838.22;5091044;28;20453;-67
2022/10/27 03:51:03;;;;;;;9.13;4.07;;;;;;;12.80;100.00;100832.75;5091803;28;20104;-68
2022/10/27 03:53:28;;;;;;;10.73;4.45;;;;;;;12.83;100.00;100838.88;5091457;28;20072;-67
2022/10/27 03:55:54;;;;;;;10.27;4.82;;;;;;;12.85;100.00;100837.03;5091404;28;20032;-67
2022/10/27 03:58:19;;;;;;;8.77;6.03;;;;;;;12.90;100.00;100837.78;5091606;28;20185;-67
2022/10/27 04:00:45;;;;;;;9.27;4.95;;;;;;;12.95;100.00;100835.84;5091533;28;20020;-67
2022/10/27 04:03:12;;;;;;;8.43;4.00;;;;;;;13.00;100.00;100835.72;5091251;28;20044;-68
2022/10/27 04:05:37;;;;;;;9.52;5.15;;;;;;;13.05;100.00;100834.69;5091452;28;20035;-67
2022/10/27 04:08:03;;;;;;;8.85;5.18;;;;;;;13.08;100.00;100834.59;5091727;28;20030;-67
2022/10/27 04:10:28;;;;;;;12.40;5.57;;;;;;;13.14;100.00;100829.09;5091469;28;20110;-67
2022/10/27 04:12:55;;;;;;;8.27;4.93;;;;;;;13.21;100.00;100833.31;5091485;28;20024;-67
2022/10/27 04:15:23;;;;;;;13.73;5.32;;;;;;;13.25;100.00;100836.75;5091652;28;20024;-67
2022/10/27 04:18:00;;;;;;;21.58;6.32;;;;;;;13.24;100.00;100825.19;5091221;28;20114;-67
2022/10/27 04:20:27;;;;;;;13.70;6.30;;;;;;;13.18;100.00;100814.72;5090825;28;20020;-67
2022/10/27 04:22:56;;;;;;;16.90;6.47;;;;;;;13.30;100.00;100824.16;5091298;28;20436;-66
2022/10/27 04:25:22;;;;;;;16.70;6.68;;;;;;;13.29;100.00;100826.88;5091331;28;20128;-67
2022/10/27 04:27:47;;;;;;;12.90;5.95;;;;;;;13.27;100.00;100828.69;5090876;28;20420;-66
2022/10/27 04:30:13;;;;;;;13.88;6.22;;;;;;;13.27;100.00;100826.03;5091021;28;20046;-67
2022/10/27 04:32:38;;;;;;;14.55;5.95;;;;;;;13.24;100.00;100813.66;5091463;28;20679;-67
2022/10/27 04:35:05;;;;;;;14.52;6.38;;;;;;;13.21;100.00;100819.94;5090424;28;20024;-68
2022/10/27 04:37:30;;;;;;;18.85;6.90;;;;;;;13.17;100.00;100818.31;5091247;28;20066;-67
2022/10/27 04:39:55;;;;;;;12.98;5.80;;;;;;;13.12;100.00;100824.69;5091146;28;20555;-67
2022/10/27 04:42:21;;;;;;;12.48;4.65;;;;;;;13.04;100.00;100826.72;5091229;28;20024;-68
2022/10/27 04:44:46;;;;;;;7.70;4.28;;;;;;;13.01;100.00;100827.69;5090878;28;20020;-66
2022/10/27 04:47:12;;;;;;;9.80;5.20;;;;;;;12.98;100.00;100833.09;5091224;28;20028;-67
2022/10/27 04:49:37;;;;;;;9.00;4.18;;;;;;;12.99;100.00;100829.50;5091025;28;20471;-67
2022/10/27 04:52:03;;;;;;;9.98;4.40;;;;;;;12.99;100.00;100824.16;5091240;28;20089;-67
2022/10/27 04:54:28;;;;;;;9.38;4.20;;;;;;;12.98;100.00;100818.88;5091079;28;20451;-67
2022/10/27 04:56:53;;;;;;;10.13;4.07;;;;;;;12.97;100.00;100820.66;5090890;28;20051;-66
2022/10/27 04:59:19;;;;;;;7.93;3.65;;;;;;;12.94;100.00;100841.25;5090211;28;20032;-66
2022/10/27 05:01:44;;;;;;;7.97;4.00;;;;;;;12.94;100.00;100830.56;5089799;28;20039;-67
2022/10/27 05:04:10;;;;;;;6.82;3.20;;;;;;;12.92;100.00;100843.94;5089619;28;20028;-67
2022/10/27 05:06:35;;;;;;;7.60;3.40;;;;;;;12.92;100.00;100846.63;5089676;28;20791;-67
2022/10/27 05:09:01;;;;;;;8.68;2.97;;;;;;;12.94;100.00;100842.13;5089940;28;20089;-66
2022/10/27 05:11:26;;;;;;;5.45;3.33;;;;;;;12.89;100.00;100828.03;5089987;28;20391;-67
2022/10/27 05:13:51;;;;;;;7.00;3.45;;;;;;;12.94;100.00;100836.78;5089296;28;20028;-66
2022/10/27 05:16:17;;;;;;;8.57;3.67;;;;;;;12.93;100.00;100837.69;5090957;28;20368;-67
2022/10/27 05:18:43;;;;;;;6.60;3.50;;;;;;;12.89;100.00;100838.72;5090674;28;20028;-67
2022/10/27 05:21:09;;;;;;;7.05;3.40;;;;;;;12.90;100.00;100847.56;5090791;28;20036;-67
2022/10/27 05:23:34;;;;;;;7.88;3.15;;;;;;;12.91;100.00;100857.34;5090847;28;20024;-67
2022/10/27 05:25:59;;;;;;;9.80;4.68;;;;;;;12.89;100.00;100849.38;5090917;28;20745;-67
2022/10/27 05:28:25;;;;;;;5.78;3.20;;;;;;;12.91;100.00;100858.25;5090749;28;20027;-68
2022/10/27 05:30:58;;;;;;;7.82;3.53;;;;;;;12.92;100.00;100846.63;5090518;28;20491;-67
2022/10/27 05:33:24;;;;;;;;;;;;;;;12.96;100.00;100840.25;5070938;28;20482;-67
2022/10/27 05:35:50;;;;;;;8.68;3.45;;;;;;;12.97;100.00;100836.69;5077003;28;19974;-67
2022/10/27 05:38:16;;;;;;;7.35;3.42;;;;;;;12.96;100.00;100831.38;5090672;28;20036;-67
2022/10/27 05:40:41;;;;;;;8.43;3.60;;;;;;;12.96;100.00;100829.56;5090327;28;20035;-67
2022/10/27 05:43:08;;;;;;;9.80;4.03;;;;;;;12.90;100.00;100824.44;5090289;28;20024;-67
2022/10/27 05:45:34;;;;;;;16.50;5.47;;;;;;;12.94;100.00;100823.44;5091298;28;20032;-70
2022/10/27 05:48:05;;;;;;;6.15;3.67;;;;;;;12.95;100.00;100822.50;5094136;28;20020;-68
2022/10/27 05:50:31;;;;;;;9.30;4.07;;;;;;;12.89;100.00;100812.00;5094064;28;20171;-68
2022/10/27 05:52:57;;;;;;;19.50;6.53;;;;;;;12.99;100.00;100839.31;5093338;28;20106;-67
2022/10/27 05:55:23;;;;;;;20.23;6.32;;;;;;;13.00;100.00;100833.03;5092923;28;20374;-66
2022/10/27 05:57:57;;;;;;;17.92;6.70;;;;;;;12.99;100.00;100833.97;5092599;28;20097;-66
2022/10/27 06:00:25;;;;;;;12.30;6.72;;;;;;;12.96;100.00;100840.25;5092985;28;20623;-66
2022/10/27 06:02:54;;;;;;;28.63;8.70;;;;;;;12.97;100.00;100836.69;5093002;28;20351;-66
2022/10/27 06:05:19;;;;;;;16.35;6.82;;;;;;;12.92;100.00;100835.94;5092811;28;20361;-66
2022/10/27 06:07:45;;;;;;;18.55;8.77;;;;;;;12.82;100.00;100826.44;5093126;28;20043;-66
2022/10/27 06:10:10;;;;;;;12.50;6.05;;;;;;;12.81;100.00;100827.38;5092432;28;20024;-66
2022/10/27 06:12:36;;;;;;;16.23;6.43;;;;;;;12.78;100.00;100830.09;5091160;28;20471;-66
2022/10/27 06:15:01;;;;;;;14.80;5.75;;;;;;;12.75;100.00;100832.88;5092194;28;20118;-66
2022/10/27 06:17:27;;;;;;;7.82;4.35;;;;;;;12.63;100.00;100843.03;5093080;28;20028;-67
2022/10/27 06:19:52;;;;;;;11.40;5.20;;;;;;;12.60;100.00;100846.63;5093246;28;20042;-66
2022/10/27 06:22:17;;;;;;;10.15;4.90;;;;;;;12.61;100.00;100843.06;5093515;28;20122;-67
2022/10/27 06:24:43;;;;;;;11.85;5.60;;;;;;;12.61;100.00;100847.53;5078535;28;20024;-67
2022/10/27 06:27:08;;;;;;;12.88;5.72;;;;;;;12.65;100.00;100846.53;5073067;28;20036;-68
2022/10/27 06:29:34;;;;;;;9.13;5.43;;;;;;;12.69;100.00;100837.50;5086623;28;20455;-67
2022/10/27 06:31:59;;;;;;;22.05;5.03;;;;;;;12.75;100.00;100850.72;5079606;28;20035;-67
2022/10/27 06:34:24;;;;;;;11.40;4.72;;;;;;;12.79;100.00;100861.25;5086633;28;20024;-68
2022/10/27 06:36:50;;;;;;;6.57;3.97;;;;;;;12.81;100.00;100862.09;5090161;28;20029;-68
2022/10/27 06:39:15;;;;;;;11.88;6.05;;;;;;;12.87;100.00;100863.69;5090968;28;20110;-67
2022/10/27 06:41:40;;;;;;;9.90;4.68;;;;;;;12.90;100.00;100867.16;5087338;28;20028;-67
2022/10/27 06:44:06;;;;;;;8.90;4.57;;;;;;;12.92;100.00;100870.66;5080181;28;20024;-67
2022/10/27 06:46:33;;;;;;;7.65;4.38;;;;;;;13.04;100.00;100875.69;5083257;28;20614;-66
2022/10/27 06:48:59;;;;;;;8.55;4.15;;;;;;;13.05;100.00;100874.75;5084530;28;20532;-67
2022/10/27 06:51:25;;;;;;;9.27;4.30;;;;;;;13.10;100.00;100875.50;5089464;28;20020;-68
2022/10/27 06:53:50;;;;;;;7.05;4.18;;;;;;;13.19;100.00;100877.88;5079861;28;20035;-66
2022/10/27 06:56:17;;;;;;;6.85;3.80;;;;;;;13.26;100.00;100888.41;5081904;28;20024;-68
2022/10/27 06:58:43;;;;;;;8.80;3.88;;;;;;;13.26;100.00;100891.09;5071610;28;20048;-68
2022/10/27 07:01:08;;;;;;;17.63;5.25;;;;;;;13.32;100.00;100888.22;5088509;28;20379;-68
2022/10/27 07:03:34;;;;;;;16.70;5.55;;;;;;;13.38;100.00;100893.41;5084865;28;20475;-68
2022/10/27 07:06:00;;;;;;;12.77;5.85;;;;;;;13.45;100.00;100886.94;5079718;28;20020;-68
2022/10/27 07:08:25;;;;;;;10.98;4.68;;;;;;;13.51;100.00;100892.09;5075810;28;20031;-67
2022/10/27 07:10:53;;;;;;;9.63;4.40;;;;;;;13.57;100.00;100897.25;5083976;28;20454;-67
2022/10/27 07:13:18;;;;;;;22.73;5.25;;;;;;;13.66;100.00;100892.50;5078690;28;20032;-67
2022/10/27 07:15:44;;;;;;;12.52;4.72;;;;;;;13.78;100.00;100907.28;5084428;28;20050;-67
2022/10/27 07:18:11;;;;;;;13.63;4.35;;;;;;;13.91;100.00;100913.97;5079721;28;20028;-66
2022/10/27 07:20:40;;;;;;;43.53;7.03;;;;;;;13.96;100.00;100910.25;5081170;28;20028;-67
2022/10/27 07:23:09;;;;;;;19.55;4.93;;;;;;;13.99;100.00;100911.94;5084988;28;20028;-67
2022/10/27 07:25:35;;;;;;;10.65;4.88;;;;;;;13.96;100.00;100915.59;5082692;28;20016;-67
2022/10/27 07:28:03;;;;;;;10.40;4.80;;;;;;;13.95;100.00;100912.97;5080597;28;20024;-67
2022/10/27 07:30:37;;;;;;;12.13;4.90;;;;;;;14.19;100.00;100914.84;5084518;28;20489;-67
2022/10/27 07:33:03;;;;;;;17.25;5.43;;;;;;;14.37;100.00;100906.22;5082510;28;20028;-68
2022/10/27 07:35:28;;;;;;;8.65;5.78;;;;;;;14.52;100.00;100919.97;5079189;28;20097;-67
2022/10/27 07:37:54;;;;;;;10.20;6.00;;;;;;;14.61;100.00;100915.22;5080374;28;20455;-67
2022/10/27 07:40:21;;;;;;;16.08;6.60;;;;;;;14.70;100.00;100913.09;5077724;28;20123;-66
2022/10/27 07:42:49;;;;;;;10.38;6.25;;;;;;;14.62;100.00;100923.22;5079678;28;20032;-68
2022/10/27 07:45:16;;;;;;;12.48;5.10;;;;;;;14.50;100.00;100920.94;5080441;28;20034;-68
2022/10/27 07:47:52;;;;;;;6.68;4.03;;;;;;;14.61;100.00;100920.59;5075235;28;20042;-66
2022/10/27 07:50:20;;;;;;;21.73;4.80;;;;;;;15.04;100.00;100927.03;5077798;28;20024;-68
2022/10/27 07:52:47;;;;;;;6.47;4.00;;;;;;;15.47;100.00;100923.66;5079284;28;20065;-66
2022/10/27 07:55:14;;;;;;;7.68;4.55;;;;;;;15.69;100.00;100914.75;5074891;28;20024;-68
2022/10/27 07:57:41;;;;;;;8.82;4.53;;;;;;;15.72;100.00;100914.63;5076034;28;20044;-67
2022/10/27 08:00:09;;;;;;;6.07;3.85;;;;;;;15.55;100.00;100918.91;5077715;28;20138;-68
2022/10/27 08:02:35;;;;;;;9.95;4.50;;;;;;;15.51;100.00;100903.88;5075799;28;20150;-67
2022/10/27 08:05:00;;;;;;;6.25;4.13;;;;;;;15.76;100.00;100916.25;5078702;28;20142;-66
2022/10/27 08:07:26;;;;;;;8.93;5.10;;;;;;;15.90;100.00;100917.53;5074871;28;20078;-68
2022/10/27 08:09:51;;;;;;;7.70;5.38;;;;;;;15.88;100.00;100916.72;5075724;28;20040;-65
2022/10/27 08:12:17;;;;;;;11.93;5.03;;;;;;;15.93;100.00;100922.78;5079498;28;20025;-67
2022/10/27 08:14:42;;;;;;;16.25;5.25;;;;;;;15.88;100.00;100930.13;5077656;28;20028;-67
2022/10/27 08:17:08;;;;;;;7.43;4.28;;;;;;;15.91;100.00;100930.88;5075330;28;20020;-68
2022/10/27 08:19:33;;;;;;;12.65;4.30;;;;;;;15.85;100.00;100933.78;5081017;28;20108;-68
2022/10/27 08:21:59;;;;;;;12.57;4.32;;;;;;;15.91;100.00;100938.94;5075139;28;20032;-66
2022/10/27 08:24:24;;;;;;;22.25;5.15;;;;;;;15.93;100.00;100933.50;5077027;28;20030;-67
2022/10/27 08:26:49;;;;;;;7.43;3.95;;;;;;;16.06;100.00;100934.75;5075596;28;20031;-67
2022/10/27 08:29:15;;;;;;;7.05;3.75;;;;;;;16.18;100.00;100934.25;5075919;28;20032;-67
2022/10/27 08:31:40;;;;;;;4.85;3.45;;;;;;;16.39;100.00;100928.88;5075457;28;20073;-67
2022/10/27 08:34:06;;;;;;;5.75;2.78;;;;;;;16.58;100.00;100924.50;5076382;28;20066;-67
2022/10/27 08:36:37;;;;;;;4.25;2.80;;;;;;;16.76;100.00;100926.41;5074521;28;20094;-65
2022/10/27 08:39:04;;;;;;;8.40;3.40;;;;;;;16.90;99.46;100926.66;5077206;28;20884;-68
2022/10/27 08:41:56;;;;;;;4.88;2.97;;;;;;;16.97;97.78;100928.16;5081510;28;20024;-68
2022/10/27 08:44:52;;;;;;;5.65;3.10;;;;;;;17.06;97.45;100921.50;5075140;28;20122;-68
2022/10/27 08:47:25;;;;;;;5.13;2.85;;;;;;;17.18;97.63;100920.06;5076241;28;20027;-66
2022/10/27 08:50:02;;;;;;;5.47;3.03;;;;;;;17.36;97.54;100928.19;5075063;28;20008;-67
2022/10/27 08:52:36;;;;;;;6.22;3.10;;;;;;;17.34;96.12;100932.75;5074623;28;20028;-68
2022/10/27 08:55:29;;;;;;;5.00;3.47;;;;;;;17.81;96.84;100938.63;5075214;28;20032;-70
2022/10/27 08:58:33;;;;;;;5.35;3.30;;;;;;;19.21;91.46;100936.88;5071585;28;20126;-68
2022/10/27 09:01:01;;;;;;;;;;;;;;;20.05;84.31;100934.03;5070896;28;20079;-67
2022/10/27 09:03:32;;;;;;;5.32;3.47;;;;;;;20.91;79.82;100933.38;5075599;28;21071;-68
2022/10/27 09:06:15;;;;;;;7.57;3.75;;;;;;;21.72;75.11;100940.06;5073981;28;20541;-66
2022/10/27 09:08:54;;;;;;;5.82;3.53;;;;;;;22.17;70.60;100927.13;5075762;28;20032;-67
2022/10/27 09:11:48;;;;;;;5.88;3.40;;;;;;;22.49;68.50;100925.00;5073813;28;20515;-66
2022/10/27 09:14:25;;;;;;;5.68;3.50;;;;;;;22.23;67.79;100933.13;5075613;28;20418;-67
2022/10/27 09:16:56;;;;;;;5.50;3.50;;;;;;;22.90;67.19;100930.38;5076382;28;20024;-67
2022/10/27 09:19:47;;;;;;;6.15;3.47;;;;;;;23.47;66.98;100931.75;5073213;28;20036;-67
2022/10/27 09:22:17;;;;;;;11.93;3.60;;;;;;;24.08;62.02;100934.53;5070894;28;20040;-67
2022/10/27 09:24:42;;;;;;;5.60;2.95;;;;;;;24.61;61.55;100923.19;5077355;28;20052;-67
2022/10/27 09:27:14;;;;;;;4.88;2.47;;;;;;;25.31;58.92;100918.63;5077373;28;20032;-67
2022/10/27 09:29:40;;;;;;;5.18;2.85;;;;;;;25.52;56.29;100916.94;5078252;28;20035;-66
2022/10/27 09:32:11;;;;;;;4.38;2.67;;;;;;;25.59;55.91;100918.22;5076882;28;20034;-67
2022/10/27 09:34:42;;;;;;;4.57;3.15;;;;;;;25.67;54.86;100923.91;5077177;28;20040;-66
2022/10/27 09:37:16;;;;;;;4.90;2.65;;;;;;;26.02;54.53;100928.38;5078235;28;20133;-67
2022/10/27 09:39:48;;;;;;;3.97;2.33;;;;;;;26.54;52.61;100925.78;5076933;28;20844;-67
2022/10/27 09:42:14;;;;;;;5.22;2.45;;;;;;;26.75;50.45;100921.28;5079076;28;20065;-66
2022/10/27 09:44:47;;;;;;;4.05;2.47;;;;;;;26.53;50.14;100924.03;5076416;28;20028;-67
2022/10/27 09:47:12;;;;;;;6.45;2.95;;;;;;;25.66;53.12;100911.28;5079790;28;20046;-66
2022/10/27 09:49:42;;;;;;;7.47;3.10;;;;;;;25.66;54.43;100915.84;5078256;28;20479;-66
2022/10/27 09:52:13;;;;;;;5.85;2.58;;;;;;;25.89;55.61;100903.94;5077167;28;20035;-66
2022/10/27 09:54:41;;;;;;;5.22;2.45;;;;;;;26.00;54.09;100905.81;5078325;28;20075;-66
2022/10/27 09:57:09;;;;;;;6.05;2.83;;;;;;;25.36;54.07;100897.38;5077286;28;20610;-67
2022/10/27 09:59:36;;;;;;;4.22;2.67;;;;;;;25.47;54.80;100893.81;5076778;28;20024;-66
2022/10/27 10:02:05;;;;;;;6.40;2.72;;;;;;;25.68;55.72;100900.25;5077675;28;20055;-67
2022/10/27 10:04:42;;;;;;;4.30;2.25;;;;;;;26.05;56.05;100899.00;5076620;28;20051;-67
2022/10/27 10:07:33;;;;;;;8.10;2.80;;;;;;;25.59;54.37;100907.31;5078007;28;20063;-66
2022/10/27 10:10:18;;;;;;;4.70;2.83;;;;;;;25.15;57.33;100906.34;5077575;28;20027;-66
2022/10/27 10:12:43;;;;;;;6.03;2.90;;;;;;;25.00;57.90;100904.81;5077583;28;20090;-67
2022/10/27 10:15:09;;;;;;;4.95;2.78;;;;;;;25.05;59.09;100906.22;5077422;28;20024;-66
2022/10/27 10:17:35;;;;;;;6.30;2.90;;;;;;;25.16;58.99;100900.78;5077595;28;20804;-66
2022/10/27 10:20:01;;;;;;;5.53;2.47;;;;;;;25.75;57.37;100896.88;5077644;28;20433;-67
2022/10/27 10:22:32;;;;;;;5.68;2.33;;;;;;;25.92;56.61;100895.50;5075167;28;20032;-67
2022/10/27 10:25:17;;;;;;;5.35;2.58;;;;;;;26.38;55.23;100890.72;5076606;28;20694;-66
2022/10/27 10:27:54;;;;;;;6.25;3.45;;;;;;;26.30;55.06;100895.09;5075229;28;20028;-67
2022/10/27 10:30:20;;;;;;;6.95;2.83;;;;;;;26.62;53.57;100893.25;5078410;28;20031;-67
2022/10/27 10:32:52;;;;;;;7.35;3.47;;;;;;;26.91;54.23;100888.91;5076676;28;20031;-67
2022/10/27 10:35:41;;;;;;;5.80;3.00;;;;;;;27.18;51.90;100881.06;5075272;28;20032;-67
2022/10/27 10:38:34;;;;;;;6.15;2.97;;;;;;;26.57;53.25;100887.31;5079299;28;20028;-67
2022/10/27 10:41:15;;;;;;;6.47;3.00;;;;;;;26.97;54.74;100872.88;5075874;28;20136;-66
2022/10/27 10:43:41;;;;;;;7.40;2.67;;;;;;;27.18;54.60;100875.59;5077934;28;20817;-66
2022/10/27 10:46:21;;;;;;;7.10;2.90;;;;;;;27.47;52.82;100871.19;5079063;28;20052;-66
2022/10/27 10:48:51;;;;;;;5.70;3.22;;;;;;;27.72;50.72;100878.06;5075800;28;20027;-67
2022/10/27 10:51:26;;;;;;;6.88;3.30;;;;;;;27.86;50.45;100866.72;5079997;28;20056;-66
2022/10/27 10:53:57;;;;;;;5.07;2.50;;;;;;;27.88;50.46;100865.59;5076229;28;20141;-66
2022/10/27 10:56:34;;;;;;;6.70;2.92;;;;;;;28.14;51.25;100855.91;5076109;28;20028;-67
2022/10/27 10:59:09;;;;;;;7.85;2.65;;;;;;;28.36;48.52;100841.09;5075187;28;20051;-66
2022/10/27 11:01:58;;;;;;;8.75;2.15;;;;;;;28.52;48.05;100844.16;5075592;28;20035;-67
2022/10/27 11:04:31;;;;;;;4.82;2.30;;;;;;;28.42;49.26;100838.63;5076645;28;20540;-67
2022/10/27 11:07:05;;;;;;;7.72;2.83;;;;;;;28.55;49.21;100835.63;5078132;28;20023;-66
2022/10/27 11:09:42;;;;;;;6.20;1.95;;;;;;;28.97;50.23;100825.22;5076126;28;20138;-66
2022/10/27 11:12:37;;;;;;;5.05;2.20;;;;;;;28.99;48.34;100824.06;5078356;28;20170;-66
2022/10/27 11:15:30;;;;;;;8.10;2.08;;;;;;;29.19;47.50;100827.66;5078622;28;20518;-67
2022/10/27 11:18:03;;;;;;;5.38;2.03;;;;;;;29.21;46.99;100831.13;5077426;28;20027;-67
2022/10/27 11:20:32;;;;;;;4.72;1.80;;;;;;;29.17;46.42;100824.19;5075406;28;20024;-67
2022/10/27 11:22:59;;;;;;;4.85;1.90;;;;;;;29.27;47.92;100811.34;5079545;28;20085;-66
2022/10/27 11:25:31;;;;;;;4.75;1.90;;;;;;;29.15;46.71;100810.66;5077740;28;20032;-65
2022/10/27 11:28:14;;;;;;;6.13;2.38;;;;;;;29.28;46.84;100813.03;5077858;28;20031;-67